Latest Weather Observations for Borrona Downs

IDN60801

Issued at 12:42 pm EDT Wednesday 21 November 2018 (issued every 10 minutes, with the page automatically refreshed every 10 minutes)

About weather observations | Map of weather stations | Latest weather observations for NSW | Other Formats
Station Details ID: 046136 Name: BORRONA DOWNS AWS Lat: -29.76 Lon: 143.11 Height: 121.0 m
Data from the previous 72 hours. | See also: Recent months at Borrona Downs
Date/Time
EDT
Temp
°C
App
Temp
°C
Dew
Point
°C
Rel
Hum
%
Delta-T
°C
Wind Press
QNH
hPa
Press
MSL
hPa
Rain since
9am
mm
Dir  Spd
km/h
Gust
km/h
Spd
kts
Gust
kts
21/12:30pm 25.7 - 17.1 59 5.4 - - - - - - - 0.2
21/12:00pm 23.7 - 17.4 68 3.9 - - - - - - - 0.0
21/11:30am 22.8 - 17.5 72 3.3 - - - - - - - 0.0
21/11:00am 22.4 - 18.4 78 2.5 - - - - - - - 0.0
21/10:30am 21.8 - 18.6 82 2.0 - - - - - - - 0.0
21/10:00am 21.3 - 18.1 82 2.0 - - - - - - - 0.0
21/09:30am 21.2 - 18.2 83 1.9 - - - - - - - 0.0
21/09:00am 20.9 - 18.5 86 1.5 - - - - - - - 2.0
21/08:30am 20.8 - 18.0 84 1.7 - - - - - - - 2.0
21/08:00am 20.5 - 18.4 88 1.3 - - - - - - - 2.0
21/07:30am 20.3 - 18.6 90 1.1 - - - - - - - 2.0
21/07:00am 20.1 - 18.4 90 1.1 - - - - - - - 2.0
21/06:30am 20.1 - 18.1 88 1.2 - - - - - - - 2.0
21/06:00am 20.3 - 17.7 85 1.6 - - - - - - - 2.0
21/05:30am 20.4 - 18.0 86 1.5 - - - - - - - 2.0
21/05:00am 20.4 - 18.3 88 1.3 - - - - - - - 2.0
21/04:30am 20.2 - 18.5 90 1.1 - - - - - - - 2.0
21/04:00am 20.6 - 18.7 89 1.2 - - - - - - - 2.0
21/03:30am 20.8 - 18.9 89 1.2 - - - - - - - 2.0
21/03:00am 21.0 - 18.9 88 1.3 - - - - - - - 1.8
21/02:30am 21.3 - 18.3 83 1.9 - - - - - - - 1.2
21/02:00am 22.1 - 17.9 77 2.6 - - - - - - - 1.0
21/01:30am 22.8 - 16.8 69 3.7 - - - - - - - 0.8
21/01:00am 23.0 - 16.5 67 4.0 - - - - - - - 0.8
21/12:30am 22.8 - 16.8 69 3.7 - - - - - - - 0.8
21/12:00am 22.8 - 17.3 71 3.4 - - - - - - - 0.8
 
Date/Time
EDT
Temp
°C
App
Temp
°C
Dew
Point
°C
Rel
Hum
%
Delta-T
°C
Wind Press
QNH
hPa
Press
MSL
hPa
Rain since
9am
mm
Dir  Spd
km/h
Gust
km/h
Spd
kts
Gust
kts
20/11:30pm 23.0 - 17.5 71 3.4 - - - - - - - 0.8
20/11:00pm 23.0 - 17.7 72 3.3 - - - - - - - 0.8
20/10:30pm 23.0 - 17.2 70 3.6 - - - - - - - 0.8
20/10:00pm 23.0 - 17.2 70 3.6 - - - - - - - 0.8
20/09:30pm 23.3 - 17.1 68 3.8 - - - - - - - 0.8
20/09:00pm 23.1 - 17.6 71 3.4 - - - - - - - 0.8
20/08:30pm 22.8 - 18.1 75 3.0 - - - - - - - 0.8
20/08:00pm 23.0 - 17.5 71 3.4 - - - - - - - 0.8
20/07:30pm 23.0 - 17.0 69 3.7 - - - - - - - 0.6
20/07:00pm 23.6 - 16.1 62 4.6 - - - - - - - 0.0
20/06:30pm 26.5 - 12.9 43 8.0 - - - - - - - 0.0
20/06:00pm 27.0 - 13.0 42 8.2 - - - - - - - 0.0
20/05:30pm 29.4 - 9.0 28 11.4 - - - - - - - 0.0
20/05:00pm 32.9 - 1.9 14 15.7 - - - - - - - 0.0
20/04:30pm 35.7 - -5.4 7 18.8 - - - - - - - 0.0
20/04:00pm 36.2 - -5.0 7 19.0 - - - - - - - 0.0
20/03:30pm 36.2 - -7.0 6 19.3 - - - - - - - 0.0
20/03:00pm 37.2 - -6.3 6 19.8 - - - - - - - 0.0
20/02:30pm 38.3 - -5.5 6 20.4 - - - - - - - 0.0
20/02:00pm 38.3 - -3.5 7 20.1 - - - - - - - 0.0
20/01:30pm 36.9 - 0.3 10 18.5 - - - - - - - 0.0
20/01:00pm 36.6 - 5.8 15 16.9 - - - - - - - 0.0
20/12:30pm 36.8 - 8.6 18 16.2 - - - - - - - 0.0
20/12:00pm 35.3 - 8.9 20 15.1 - - - - - - - 0.0
20/11:30am 34.3 - 9.5 22 14.3 - - - - - - - 0.0
20/11:00am 34.1 - 11.9 26 13.2 - - - - - - - 0.0
20/10:30am 33.4 - 13.5 30 12.1 - - - - - - - 0.0
20/10:00am 31.8 - 14.0 34 10.8 - - - - - - - 0.0
20/09:30am 31.0 - 13.7 34 10.5 - - - - - - - 0.0
20/09:00am 31.1 - 14.3 36 10.3 - - - - - - - 0.0
20/08:30am 29.9 - 14.0 37 9.6 - - - - - - - 0.0
20/08:00am 30.1 - 14.2 38 9.7 - - - - - - - 0.0
20/07:30am 28.9 - 14.7 42 8.6 - - - - - - - 0.0
20/07:00am 27.9 - 14.9 45 7.9 - - - - - - - 0.0
20/06:30am 27.6 - 14.6 45 7.9 - - - - - - - 0.0
20/06:00am 27.6 - 14.6 45 7.9 - - - - - - - 0.0
20/05:30am 27.9 - 14.2 43 8.2 - - - - - - - 0.0
20/05:00am 28.2 - 13.3 40 8.9 - - - - - - - 0.0
20/04:30am 28.4 - 12.3 37 9.4 - - - - - - - 0.0
20/04:00am 28.6 - 12.1 36 9.6 - - - - - - - 0.0
20/03:30am 29.0 - 11.6 34 10.1 - - - - - - - 0.0
20/03:00am 29.4 - 11.5 33 10.4 - - - - - - - 0.0
20/02:30am 29.9 - 11.4 32 10.7 - - - - - - - 0.0
20/02:00am 30.0 - 10.0 29 11.4 - - - - - - - 0.0
20/01:30am 30.5 - 9.4 27 11.9 - - - - - - - 0.0
20/01:00am 30.8 - 8.5 25 12.4 - - - - - - - 0.0
20/12:30am 31.1 - 8.8 25 12.5 - - - - - - - 0.0
20/12:00am 31.3 - 8.3 24 12.8 - - - - - - - 0.0
 
Date/Time
EDT
Temp
°C
App
Temp
°C
Dew
Point
°C
Rel
Hum
%
Delta-T
°C
Wind Press
QNH
hPa
Press
MSL
hPa
Rain since
9am
mm
Dir  Spd
km/h
Gust
km/h
Spd
kts
Gust
kts
19/11:30pm 31.1 - 8.2 24 12.7 - - - - - - - 0.0
19/11:00pm 30.9 - 6.7 22 13.1 - - - - - - - 0.0
19/10:30pm 30.6 - 6.5 22 13.0 - - - - - - - 0.0
19/10:00pm 30.9 - 6.0 21 13.3 - - - - - - - 0.0
19/09:30pm 31.4 - 5.8 20 13.7 - - - - - - - 0.0
19/09:00pm 32.5 - 5.9 19 14.3 - - - - - - - 0.0
19/08:30pm 33.5 - 5.1 17 15.2 - - - - - - - 0.0
19/08:00pm 35.1 - 4.6 15 16.3 - - - - - - - 0.0
19/07:30pm 35.6 - 5.0 15 16.5 - - - - - - - 0.0
19/07:00pm 36.0 - 4.3 14 16.9 - - - - - - - 0.0
19/06:30pm 36.3 - 4.6 14 17.1 - - - - - - - 0.0
19/06:00pm 35.9 - 5.2 15 16.6 - - - - - - - 0.0
19/05:30pm 36.1 - 5.4 15 16.7 - - - - - - - 0.0
19/05:00pm 36.2 - 5.5 15 16.7 - - - - - - - 0.0
19/04:30pm 36.6 - 5.8 15 16.9 - - - - - - - 0.0
19/04:00pm 36.0 - 4.3 14 16.9 - - - - - - - 0.0
19/03:30pm 36.3 - 5.5 15 16.8 - - - - - - - 0.0
19/03:00pm 35.5 - 4.9 15 16.5 - - - - - - - 0.0
19/02:30pm 36.0 - 4.3 14 16.9 - - - - - - - 0.0
19/02:00pm 35.6 - 1.8 12 17.3 - - - - - - - 0.0
19/01:30pm 34.8 - 3.4 14 16.4 - - - - - - - 0.0
19/01:00pm 34.6 - 5.1 16 15.9 - - - - - - - 0.0
19/12:30pm 34.2 - 4.8 16 15.7 - - - - - - - 0.0
19/12:00pm 34.1 - 5.6 17 15.4 - - - - - - - 0.0
19/11:30am 34.0 - 6.3 18 15.1 - - - - - - - 0.0
19/11:00am 33.0 - 4.7 17 15.0 - - - - - - - 0.0
19/10:30am 32.4 - 7.3 21 13.8 - - - - - - - 0.0
19/10:00am 31.1 - 8.8 25 12.5 - - - - - - - 0.0
19/09:30am 30.1 - 9.1 27 11.8 - - - - - - - 0.0
19/09:00am 28.3 - 8.6 29 10.8 - - - - - - - 0.0
19/08:30am 27.0 - 8.4 31 10.1 - - - - - - - 0.0
19/08:00am 26.0 - 8.0 32 9.7 - - - - - - - 0.0
19/07:30am 25.1 - 7.7 33 9.3 - - - - - - - 0.0
19/07:00am 24.3 - 7.0 33 9.1 - - - - - - - 0.0
19/06:30am 23.7 - 5.6 31 9.2 - - - - - - - 0.0
19/06:00am 24.2 - 5.5 30 9.5 - - - - - - - 0.0
19/05:30am 23.0 - 4.5 30 9.2 - - - - - - - 0.0
19/05:00am 21.6 - 2.8 29 8.9 - - - - - - - 0.0
19/04:30am 22.1 - 2.2 27 9.4 - - - - - - - 0.0
19/04:00am 22.5 - 2.1 26 9.6 - - - - - - - 0.0
19/03:30am 22.9 - 2.4 26 9.8 - - - - - - - 0.0
19/03:00am 23.1 - 2.0 25 10.0 - - - - - - - 0.0
19/02:30am 23.7 - 2.0 24 10.3 - - - - - - - 0.0
19/02:00am 24.6 - 2.1 23 10.8 - - - - - - - 0.0
19/01:30am 25.2 - 2.0 22 11.2 - - - - - - - 0.0
19/01:00am 25.5 - 1.6 21 11.4 - - - - - - - 0.0
19/12:30am 26.0 - 0.6 19 12.0 - - - - - - - 0.0
19/12:00am 26.2 - 0.0 18 12.2 - - - - - - - 0.0
 
Date/Time
EDT
Temp
°C
App
Temp
°C
Dew
Point
°C
Rel
Hum
%
Delta-T
°C
Wind Press
QNH
hPa
Press
MSL
hPa
Rain since
9am
mm
Dir  Spd
km/h
Gust
km/h
Spd
kts
Gust
kts
18/11:30pm 26.8 - -0.3 17 12.6 - - - - - - - 0.0
18/11:00pm 27.7 - -1.3 15 13.4 - - - - - - - 0.0
18/10:30pm 28.7 - -1.4 14 14.0 - - - - - - - 0.0
18/10:00pm 28.8 - -2.3 13 14.2 - - - - - - - 0.0
18/09:30pm 29.6 - -3.9 11 15.0 - - - - - - - 0.0
18/09:00pm 30.0 - -4.9 10 15.4 - - - - - - - 0.0
18/08:30pm 31.0 - -4.1 10 15.8 - - - - - - - 0.0
18/08:00pm 32.4 - -4.5 9 16.7 - - - - - - - 0.0
18/07:30pm 33.1 - -5.5 8 17.3 - - - - - - - 0.0
18/07:00pm 33.6 - -5.2 8 17.5 - - - - - - - 0.0
18/06:30pm 33.8 - -5.0 8 17.6 - - - - - - - 0.0
18/06:00pm 34.0 - -4.9 8 17.7 - - - - - - - 0.0
18/05:30pm 33.7 - -3.5 9 17.3 - - - - - - - 0.0
18/05:00pm 33.8 - -5.0 8 17.6 - - - - - - - 0.0
18/04:30pm 34.3 - -4.6 8 17.8 - - - - - - - 0.0
18/04:00pm 33.5 - -3.7 9 17.2 - - - - - - - 0.0
18/03:30pm 33.3 - -3.8 9 17.1 - - - - - - - 0.0
18/03:00pm 32.7 - -4.3 9 16.8 - - - - - - - 0.0
18/02:30pm 32.5 - -4.4 9 16.7 - - - - - - - 0.0
18/02:00pm 32.5 - -4.4 9 16.7 - - - - - - - 0.0
18/01:30pm 31.8 - -3.5 10 16.2 - - - - - - - 0.0
18/01:00pm 31.3 - -3.9 10 16.0 - - - - - - - 0.0

Other Formats:

Comma delimited format used in spreadsheet applications
http://www.bom.gov.au/fwo/IDN60801/IDN60801.94407.axf

JavaScript Object Notation format (JSON) in row-major order
http://www.bom.gov.au/fwo/IDN60801/IDN60801.94407.json